Time;durP1;ratioP1;P1;durP2;ratioP2;P2;SDS_P1;SDS_P2;PMS_P1;PMS_P2;Temp;Humidity;BMP_temperature;BMP_pressure;BME280_temperature;BME280_humidity;BME280_pressure;Samples;Min_cycle;Max_cycle;Signal;HPM_P1;HPM_P2
2022/10/29 00:02:00;;;;;;;0.80;0.77;;;15.20;99.90;;;;;;5096297;28;20469;-84
2022/10/29 00:04:28;;;;;;;1.00;0.90;;;15.20;99.90;;;;;;5095615;28;20451;-84
2022/10/29 00:06:55;;;;;;;4.30;0.90;;;15.20;99.90;;;;;;5095298;28;20493;-84
2022/10/29 00:09:22;;;;;;;2.53;0.80;;;15.20;99.90;;;;;;5095684;28;20994;-84
2022/10/29 00:11:48;;;;;;;0.63;0.63;;;15.20;99.90;;;;;;5095652;28;20476;-84
2022/10/29 00:14:16;;;;;;;4.13;0.83;;;15.10;99.90;;;;;;5095969;28;20444;-84
2022/10/29 00:16:42;;;;;;;3.30;1.00;;;15.10;99.90;;;;;;5095599;28;20469;-84
2022/10/29 00:19:09;;;;;;;2.07;0.47;;;15.00;99.90;;;;;;5095978;28;20469;-84
2022/10/29 00:21:39;;;;;;;1.83;0.93;;;15.00;99.90;;;;;;5095799;28;20479;-84
2022/10/29 00:24:08;;;;;;;2.53;0.70;;;14.90;99.90;;;;;;5095814;28;20535;-84
2022/10/29 00:26:35;;;;;;;1.23;0.67;;;14.90;99.90;;;;;;5095486;28;20444;-84
2022/10/29 00:29:02;;;;;;;1.13;0.60;;;14.80;99.90;;;;;;5095610;28;20452;-84
2022/10/29 00:31:29;;;;;;;1.80;0.90;;;14.80;99.90;;;;;;5095595;28;20464;-84
2022/10/29 00:33:56;;;;;;;0.83;0.70;;;14.80;99.90;;;;;;5095611;28;20449;-84
2022/10/29 00:36:25;;;;;;;3.17;0.80;;;14.80;99.90;;;;;;5095289;28;20974;-84
2022/10/29 00:38:53;;;;;;;0.90;0.80;;;14.70;99.90;;;;;;5095594;28;20456;-84
2022/10/29 00:41:22;;;;;;;3.50;1.20;;;14.70;99.90;;;;;;5099310;28;20452;-83
2022/10/29 00:43:50;;;;;;;1.13;0.80;;;14.70;99.90;;;;;;5096099;28;20444;-84
2022/10/29 00:46:22;;;;;;;0.80;0.70;;;14.60;99.90;;;;;;5095593;28;20453;-84
2022/10/29 00:48:52;;;;;;;1.93;0.67;;;14.60;99.90;;;;;;5095401;28;20433;-84
2022/10/29 00:51:19;;;;;;;4.63;0.80;;;14.70;99.90;;;;;;5095206;28;20495;-84
2022/10/29 00:53:48;;;;;;;4.63;0.63;;;14.70;99.90;;;;;;5095275;28;20454;-84
2022/10/29 00:56:17;;;;;;;0.97;0.77;;;14.70;99.90;;;;;;5095282;28;20449;-84
2022/10/29 00:58:45;;;;;;;1.23;0.83;;;14.70;99.90;;;;;;5095247;28;20433;-84
2022/10/29 01:01:11;;;;;;;3.53;0.80;;;14.60;99.90;;;;;;5095073;28;20468;-84
2022/10/29 01:03:39;;;;;;;2.03;1.30;;;14.70;99.90;;;;;;5094941;28;20523;-84
2022/10/29 01:06:06;;;;;;;1.53;0.97;;;14.70;99.90;;;;;;5094908;28;20447;-84
2022/10/29 01:08:33;;;;;;;1.67;1.10;;;14.70;99.90;;;;;;5094800;28;20955;-84
2022/10/29 01:11:09;;;;;;;0.77;0.77;;;14.70;99.90;;;;;;5094444;28;20488;-84
2022/10/29 01:13:56;;;;;;;1.87;1.07;;;14.70;99.90;;;;;;5094534;28;20924;-84
2022/10/29 01:16:31;;;;;;;0.80;0.80;;;14.80;99.90;;;;;;5093988;28;20539;-83
2022/10/29 01:19:06;;;;;;;2.60;0.67;;;14.80;99.90;;;;;;5094401;28;20435;-84
2022/10/29 01:21:39;;;;;;;2.10;0.70;;;14.90;99.90;;;;;;5094304;28;21145;-84
2022/10/29 01:24:38;;;;;;;0.73;0.73;;;14.90;99.90;;;;;;5094668;28;20432;-84
2022/10/29 01:27:42;;;;;;;2.20;0.90;;;15.00;99.90;;;;;;5094252;28;20973;-84
2022/10/29 01:30:20;;;;;;;1.57;1.10;;;15.00;99.90;;;;;;5080683;28;20990;-84
2022/10/29 01:33:02;;;;;;;2.00;0.90;;;15.10;99.90;;;;;;5094343;28;20470;-84
2022/10/29 01:35:38;;;;;;;0.77;0.60;;;15.20;99.90;;;;;;5094435;28;20436;-84
2022/10/29 01:38:18;;;;;;;0.90;0.70;;;15.20;99.90;;;;;;5094349;28;20432;-84
2022/10/29 01:40:53;;;;;;;2.53;1.97;;;15.30;99.90;;;;;;5093882;28;20930;-84
2022/10/29 01:43:25;;;;;;;0.73;0.70;;;15.30;99.90;;;;;;5094313;28;20803;-84
2022/10/29 01:45:58;;;;;;;2.37;0.87;;;15.40;99.90;;;;;;5094277;28;20437;-84
2022/10/29 01:48:30;;;;;;;1.50;0.80;;;15.40;99.90;;;;;;5094299;28;20436;-84
2022/10/29 01:51:01;;;;;;;0.70;0.60;;;15.40;99.90;;;;;;5093983;28;20491;-84
2022/10/29 01:53:29;;;;;;;0.63;0.63;;;15.30;99.90;;;;;;5094194;28;20454;-84
2022/10/29 01:55:56;;;;;;;0.73;0.73;;;15.40;99.90;;;;;;5094129;28;20441;-83
2022/10/29 01:58:25;;;;;;;0.60;0.50;;;15.40;99.90;;;;;;5094075;28;20452;-84
2022/10/29 02:01:00;;;;;;;0.77;0.73;;;15.40;99.90;;;;;;5093650;28;20471;-84
2022/10/29 02:03:37;;;;;;;4.17;1.37;;;15.30;99.90;;;;;;5094044;28;20429;-84
2022/10/29 02:06:11;;;;;;;1.00;0.60;;;15.30;99.90;;;;;;5093734;28;20437;-84
2022/10/29 02:08:47;;;;;;;3.90;1.00;;;15.30;99.90;;;;;;5093892;28;20798;-84
2022/10/29 02:11:21;;;;;;;1.07;0.63;;;15.30;99.90;;;;;;5093636;28;20494;-84
2022/10/29 02:13:53;;;;;;;1.57;0.80;;;15.30;99.90;;;;;;5093475;28;20420;-84
2022/10/29 02:16:22;;;;;;;4.83;0.77;;;15.30;99.90;;;;;;5093195;28;20481;-84
2022/10/29 02:18:51;;;;;;;1.57;0.80;;;15.40;99.90;;;;;;5093597;28;20816;-84
2022/10/29 02:21:20;;;;;;;1.80;0.97;;;15.30;99.90;;;;;;5093529;28;20465;-84
2022/10/29 02:23:48;;;;;;;0.97;0.70;;;15.30;99.90;;;;;;5093358;28;20966;-84
2022/10/29 02:26:14;;;;;;;1.70;1.00;;;15.30;99.90;;;;;;5093332;28;20453;-83
2022/10/29 02:28:42;;;;;;;0.80;0.70;;;15.30;99.90;;;;;;5094195;28;20449;-84
2022/10/29 02:31:08;;;;;;;6.33;1.57;;;15.30;99.90;;;;;;5095929;28;21011;-84
2022/10/29 02:33:36;;;;;;;1.67;1.00;;;15.40;99.90;;;;;;5096992;28;20453;-84
2022/10/29 02:36:04;;;;;;;0.50;0.50;;;15.40;99.90;;;;;;5097048;28;20453;-84
2022/10/29 02:38:31;;;;;;;1.17;0.73;;;15.50;99.90;;;;;;5094926;28;20456;-84
2022/10/29 02:40:58;;;;;;;1.03;0.83;;;15.50;99.90;;;;;;5093091;28;20471;-84
2022/10/29 02:43:25;;;;;;;3.20;0.70;;;15.50;99.90;;;;;;5093100;28;20459;-84
2022/10/29 02:46:10;;;;;;;1.40;0.90;;;15.50;99.90;;;;;;5093358;28;20448;-84
2022/10/29 02:48:37;;;;;;;6.83;1.20;;;15.50;99.90;;;;;;5093367;28;20433;-84
2022/10/29 02:51:05;;;;;;;0.93;0.93;;;15.50;99.90;;;;;;5092960;28;20495;-84
2022/10/29 02:53:32;;;;;;;0.90;0.73;;;15.40;99.90;;;;;;5093933;28;20453;-84
2022/10/29 02:55:59;;;;;;;1.03;0.80;;;15.40;99.90;;;;;;5093340;28;20433;-84
2022/10/29 02:58:25;;;;;;;3.03;1.00;;;15.40;99.90;;;;;;5093289;28;20444;-84
2022/10/29 03:00:53;;;;;;;2.60;0.80;;;15.40;99.90;;;;;;5093240;28;20465;-83
2022/10/29 03:03:19;;;;;;;2.00;0.90;;;15.40;99.90;;;;;;5093210;28;20445;-84
2022/10/29 03:05:46;;;;;;;1.33;0.90;;;15.40;99.90;;;;;;5093215;28;20452;-84
2022/10/29 03:08:14;;;;;;;2.00;0.77;;;15.40;99.90;;;;;;5093184;28;20448;-84
2022/10/29 03:10:41;;;;;;;2.20;0.97;;;15.40;99.90;;;;;;5092996;28;20481;-84
2022/10/29 03:13:08;;;;;;;2.50;0.70;;;15.30;99.90;;;;;;5093096;28;20448;-84
2022/10/29 03:15:35;;;;;;;0.70;0.70;;;15.30;99.90;;;;;;5092731;28;20444;-84
2022/10/29 03:18:02;;;;;;;1.40;0.93;;;15.20;99.90;;;;;;5092607;28;20481;-84
2022/10/29 03:20:28;;;;;;;1.00;0.67;;;15.20;99.90;;;;;;5093043;28;20448;-84
2022/10/29 03:22:55;;;;;;;1.00;1.00;;;15.20;99.90;;;;;;5092925;28;20476;-84
2022/10/29 03:25:23;;;;;;;0.67;0.67;;;15.20;99.90;;;;;;5092957;28;20449;-84
2022/10/29 03:27:50;;;;;;;2.10;1.97;;;15.10;99.90;;;;;;5093013;28;20445;-84
2022/10/29 03:30:17;;;;;;;0.80;0.80;;;15.10;99.90;;;;;;5092837;28;20496;-86
2022/10/29 03:32:45;;;;;;;2.30;1.10;;;15.00;99.90;;;;;;5092867;28;20467;-85
2022/10/29 03:35:14;;;;;;;2.07;0.77;;;15.00;99.90;;;;;;5092847;28;20445;-85
2022/10/29 03:37:41;;;;;;;1.63;1.20;;;14.90;99.90;;;;;;5092660;28;20439;-85
2022/10/29 03:40:09;;;;;;;0.83;0.70;;;15.00;99.90;;;;;;5094736;28;20481;-85
2022/10/29 03:42:38;;;;;;;5.40;0.80;;;15.00;99.90;;;;;;5096545;28;20472;-85
2022/10/29 03:45:05;;;;;;;5.27;1.00;;;15.00;99.90;;;;;;5096366;28;20451;-85
2022/10/29 03:47:33;;;;;;;1.80;1.20;;;14.90;99.90;;;;;;5096383;28;20795;-85
2022/10/29 03:50:00;;;;;;;2.57;1.23;;;14.90;99.90;;;;;;5096424;28;20448;-85
2022/10/29 03:52:27;;;;;;;2.20;1.07;;;14.80;99.90;;;;;;5096419;28;20832;-85
2022/10/29 03:54:54;;;;;;;1.00;0.70;;;14.80;99.90;;;;;;5096424;28;20451;-85
2022/10/29 03:57:21;;;;;;;0.70;0.60;;;14.70;99.90;;;;;;5096411;28;20447;-85
2022/10/29 03:59:49;;;;;;;0.80;0.70;;;14.70;99.90;;;;;;5096035;28;20962;-85
2022/10/29 04:02:16;;;;;;;1.27;0.67;;;14.70;99.90;;;;;;5096236;28;20460;-85
2022/10/29 04:04:43;;;;;;;1.10;1.00;;;14.70;99.90;;;;;;5096241;28;20452;-85
2022/10/29 04:07:09;;;;;;;0.73;0.73;;;14.70;99.90;;;;;;5096220;28;20455;-85
2022/10/29 04:09:36;;;;;;;0.77;0.77;;;14.70;99.90;;;;;;5095853;28;20448;-85
2022/10/29 04:12:03;;;;;;;3.30;0.90;;;14.70;99.90;;;;;;5096050;28;20498;-85
2022/10/29 04:14:30;;;;;;;1.10;0.70;;;14.80;99.90;;;;;;5096093;28;20444;-85
2022/10/29 04:16:59;;;;;;;2.97;0.73;;;14.80;99.90;;;;;;5095723;28;20484;-85
2022/10/29 04:19:25;;;;;;;2.70;1.13;;;14.80;99.90;;;;;;5095938;28;20448;-85
2022/10/29 04:21:53;;;;;;;0.80;0.80;;;14.80;99.90;;;;;;5095836;28;20460;-85
2022/10/29 04:24:19;;;;;;;1.07;0.90;;;14.70;99.90;;;;;;5095552;28;20939;-85
2022/10/29 04:26:46;;;;;;;0.60;0.60;;;14.70;99.90;;;;;;5095478;28;20794;-85
2022/10/29 04:29:13;;;;;;;0.80;0.63;;;14.60;99.90;;;;;;5095810;28;20452;-85
2022/10/29 04:31:39;;;;;;;1.03;0.63;;;14.60;99.90;;;;;;5095591;28;20851;-85
2022/10/29 04:34:08;;;;;;;0.90;0.80;;;14.60;99.90;;;;;;5095466;28;20799;-85
2022/10/29 04:36:34;;;;;;;0.93;0.90;;;14.50;99.90;;;;;;5095699;28;20449;-85
2022/10/29 04:39:01;;;;;;;3.40;0.90;;;14.50;99.90;;;;;;5096492;28;20452;-85
2022/10/29 04:41:28;;;;;;;0.70;0.70;;;14.50;99.90;;;;;;5095516;28;20826;-85
2022/10/29 04:43:55;;;;;;;4.10;1.00;;;14.50;99.90;;;;;;5095209;28;20448;-84
2022/10/29 04:46:21;;;;;;;0.73;0.50;;;14.40;99.90;;;;;;5095229;28;20940;-85
2022/10/29 04:48:48;;;;;;;1.10;0.93;;;14.30;99.90;;;;;;5095241;28;20927;-85
2022/10/29 04:51:21;;;;;;;1.23;0.60;;;14.30;99.90;;;;;;5094553;28;20495;-85
2022/10/29 04:53:48;;;;;;;2.80;1.20;;;14.20;99.90;;;;;;5096044;28;20441;-85
2022/10/29 04:56:15;;;;;;;0.77;0.53;;;14.20;99.90;;;;;;5094953;28;20940;-85
2022/10/29 04:58:41;;;;;;;0.90;0.80;;;14.20;99.90;;;;;;5095082;28;20425;-85
2022/10/29 05:01:08;;;;;;;0.70;0.70;;;14.20;99.90;;;;;;5095247;28;20468;-85
2022/10/29 05:03:35;;;;;;;0.43;0.43;;;14.10;99.90;;;;;;5095098;28;20451;-84
2022/10/29 05:06:03;;;;;;;1.60;0.70;;;14.10;99.90;;;;;;5094694;28;20448;-85
2022/10/29 05:08:31;;;;;;;0.80;0.60;;;14.10;99.90;;;;;;5095334;28;20452;-85
2022/10/29 05:11:02;;;;;;;0.77;0.73;;;14.00;99.90;;;;;;5094747;28;20491;-85
2022/10/29 05:13:29;;;;;;;0.67;0.67;;;14.00;99.90;;;;;;5094939;28;20413;-85
2022/10/29 05:15:55;;;;;;;1.33;0.80;;;13.90;99.90;;;;;;5094606;28;20503;-85
2022/10/29 05:18:22;;;;;;;1.67;0.60;;;14.00;99.90;;;;;;5094856;28;20436;-84
2022/10/29 05:20:53;;;;;;;0.53;0.50;;;13.90;99.90;;;;;;5094574;28;20449;-84
2022/10/29 05:23:19;;;;;;;0.93;0.80;;;13.90;99.90;;;;;;5094783;28;20476;-84
2022/10/29 05:25:50;;;;;;;1.27;0.77;;;13.90;99.90;;;;;;5094624;28;20452;-84
2022/10/29 05:28:19;;;;;;;3.30;0.83;;;13.90;99.90;;;;;;5094701;28;20546;-84
2022/10/29 05:30:46;;;;;;;0.80;0.80;;;13.80;99.90;;;;;;5094248;28;20487;-84
2022/10/29 05:33:15;;;;;;;0.77;0.70;;;13.90;99.90;;;;;;5095195;28;20444;-84
2022/10/29 05:35:42;;;;;;;1.73;1.27;;;13.80;99.90;;;;;;5095169;28;20448;-84
2022/10/29 05:38:10;;;;;;;1.43;1.00;;;13.80;99.90;;;;;;5094927;28;20540;-84
2022/10/29 05:40:37;;;;;;;1.13;0.70;;;13.80;99.90;;;;;;5094593;28;20452;-84
2022/10/29 05:43:05;;;;;;;1.60;1.10;;;13.80;99.90;;;;;;5094101;28;20944;-84
2022/10/29 05:45:32;;;;;;;0.77;0.67;;;13.70;99.90;;;;;;5093982;28;20969;-83
2022/10/29 05:48:00;;;;;;;1.63;0.77;;;13.70;99.90;;;;;;5093964;28;20441;-84
2022/10/29 05:50:27;;;;;;;0.73;0.73;;;13.70;99.90;;;;;;5094167;28;20448;-84
2022/10/29 05:52:57;;;;;;;1.13;0.70;;;13.70;99.90;;;;;;5094011;28;20488;-84
2022/10/29 05:55:25;;;;;;;0.70;0.60;;;13.60;99.90;;;;;;5093817;28;20935;-84
2022/10/29 05:57:55;;;;;;;3.03;1.33;;;13.60;99.90;;;;;;5094137;28;20448;-84
2022/10/29 06:00:24;;;;;;;2.93;0.80;;;13.60;99.90;;;;;;5094498;28;20993;-84
2022/10/29 06:02:50;;;;;;;1.87;0.70;;;13.60;99.90;;;;;;5093954;28;20487;-84
2022/10/29 06:05:17;;;;;;;1.63;0.80;;;13.60;99.90;;;;;;5093959;28;20448;-83
2022/10/29 06:07:44;;;;;;;1.17;0.90;;;13.60;99.90;;;;;;5094025;28;20452;-84
2022/10/29 06:10:11;;;;;;;0.70;0.70;;;13.50;99.90;;;;;;5093540;28;20448;-84
2022/10/29 06:12:37;;;;;;;0.80;0.60;;;13.60;99.90;;;;;;5094313;28;20558;-84
2022/10/29 06:15:05;;;;;;;1.80;0.80;;;13.50;99.90;;;;;;5094383;28;20451;-84
2022/10/29 06:17:33;;;;;;;1.00;0.90;;;13.60;99.90;;;;;;5093270;28;20850;-84
2022/10/29 06:20:00;;;;;;;1.53;0.83;;;13.60;99.90;;;;;;5093706;28;20448;-84
2022/10/29 06:22:27;;;;;;;1.10;0.70;;;13.60;99.90;;;;;;5093632;28;20456;-84
2022/10/29 06:24:53;;;;;;;3.30;1.00;;;13.60;99.90;;;;;;5093601;28;20437;-84
2022/10/29 06:27:20;;;;;;;1.10;0.60;;;13.70;99.90;;;;;;5093637;28;20459;-84
2022/10/29 06:29:47;;;;;;;6.10;0.77;;;13.70;99.90;;;;;;5093325;28;20433;-84
2022/10/29 06:32:14;;;;;;;1.33;0.77;;;13.70;99.90;;;;;;5093545;28;20489;-84
2022/10/29 06:34:42;;;;;;;2.27;0.93;;;13.70;99.90;;;;;;5093212;28;20460;-84
2022/10/29 06:37:09;;;;;;;0.90;0.70;;;13.70;99.90;;;;;;5093597;28;20441;-84
2022/10/29 06:39:36;;;;;;;1.77;1.67;;;13.70;99.90;;;;;;5093533;28;20448;-84
2022/10/29 06:42:02;;;;;;;10.80;1.60;;;13.70;99.90;;;;;;5093296;28;20463;-84
2022/10/29 06:44:29;;;;;;;1.40;1.20;;;13.70;99.90;;;;;;5093269;28;20441;-84
2022/10/29 06:46:56;;;;;;;1.63;0.87;;;13.70;99.90;;;;;;5093539;28;20452;-84
2022/10/29 06:49:23;;;;;;;1.10;1.00;;;13.70;99.90;;;;;;5093243;28;20803;-84
2022/10/29 06:51:51;;;;;;;1.83;0.83;;;13.80;99.90;;;;;;5093545;28;20485;-84
2022/10/29 06:54:18;;;;;;;2.93;0.60;;;13.80;99.90;;;;;;5093441;28;20456;-84
2022/10/29 06:56:45;;;;;;;2.00;1.17;;;13.80;99.90;;;;;;5093440;28;20452;-84
2022/10/29 06:59:12;;;;;;;1.83;0.97;;;13.90;99.90;;;;;;5093238;28;20442;-84
2022/10/29 07:01:38;;;;;;;1.43;0.80;;;13.90;99.90;;;;;;5093396;28;20460;-84
2022/10/29 07:04:05;;;;;;;0.90;0.80;;;13.90;99.90;;;;;;5093386;28;20838;-85
2022/10/29 07:06:33;;;;;;;3.30;0.83;;;14.00;99.90;;;;;;5093064;28;20437;-84
2022/10/29 07:09:02;;;;;;;1.00;0.90;;;14.10;99.90;;;;;;5094014;28;20796;-84
2022/10/29 07:11:28;;;;;;;0.73;0.50;;;14.10;99.90;;;;;;5092824;28;20987;-84
2022/10/29 07:13:55;;;;;;;0.80;0.70;;;14.20;99.90;;;;;;5093246;28;20459;-84
2022/10/29 07:16:22;;;;;;;1.90;0.80;;;14.20;99.90;;;;;;5096964;28;20479;-84
2022/10/29 07:18:49;;;;;;;1.37;0.80;;;14.30;99.90;;;;;;5096964;28;20444;-84
2022/10/29 07:21:15;;;;;;;0.50;0.50;;;14.30;99.90;;;;;;5096878;28;21020;-84
2022/10/29 07:23:42;;;;;;;1.27;1.00;;;14.40;99.90;;;;;;5097149;28;20459;-85
2022/10/29 07:26:10;;;;;;;2.57;1.00;;;14.40;99.90;;;;;;5097083;28;20819;-84
2022/10/29 07:28:37;;;;;;;1.80;0.90;;;14.50;99.90;;;;;;5097119;28;20471;-84
2022/10/29 07:31:04;;;;;;;1.63;0.80;;;14.50;99.90;;;;;;5096928;28;20473;-84
2022/10/29 07:33:31;;;;;;;2.33;0.93;;;14.60;99.90;;;;;;5096923;28;20445;-84
2022/10/29 07:35:58;;;;;;;0.50;0.50;;;14.60;99.90;;;;;;5096641;28;20938;-84
2022/10/29 07:38:25;;;;;;;1.67;0.93;;;14.70;99.90;;;;;;5096930;28;20425;-84
2022/10/29 07:40:53;;;;;;;5.50;1.00;;;14.70;99.90;;;;;;5096833;28;20472;-84
2022/10/29 07:43:22;;;;;;;1.00;1.00;;;14.80;99.90;;;;;;5096776;28;20445;-84
2022/10/29 07:45:51;;;;;;;2.57;0.90;;;14.80;99.90;;;;;;5096722;28;20457;-85
2022/10/29 07:48:18;;;;;;;1.97;1.20;;;14.90;99.90;;;;;;5096431;28;20926;-85
2022/10/29 07:50:45;;;;;;;0.80;0.80;;;15.00;99.90;;;;;;5096343;28;20924;-83
2022/10/29 07:53:12;;;;;;;0.60;0.60;;;15.00;99.90;;;;;;5096708;28;21001;-84
2022/10/29 07:55:39;;;;;;;7.10;1.20;;;15.10;99.90;;;;;;5096529;28;20451;-84
2022/10/29 07:58:09;;;;;;;3.77;1.03;;;15.20;99.90;;;;;;5096549;28;20452;-84
2022/10/29 08:00:39;;;;;;;2.33;0.90;;;15.30;99.90;;;;;;5096098;28;20433;-84
2022/10/29 08:03:06;;;;;;;2.20;1.40;;;15.40;99.90;;;;;;5096417;28;20472;-84
2022/10/29 08:05:33;;;;;;;2.33;1.47;;;15.50;99.90;;;;;;5096275;28;20452;-84
2022/10/29 08:07:59;;;;;;;1.03;0.80;;;15.60;99.90;;;;;;5096333;28;20444;-84
2022/10/29 08:10:26;;;;;;;3.03;1.63;;;15.70;99.90;;;;;;5095929;28;20951;-84
2022/10/29 08:12:54;;;;;;;2.17;1.00;;;15.90;99.90;;;;;;5096079;28;20481;-84
2022/10/29 08:15:22;;;;;;;1.33;1.23;;;16.10;99.90;;;;;;5096177;28;20444;-84
2022/10/29 08:17:51;;;;;;;1.43;1.07;;;16.30;99.90;;;;;;5095717;28;20492;-84
2022/10/29 08:20:18;;;;;;;0.80;0.80;;;16.50;99.90;;;;;;5096050;28;20457;-84
2022/10/29 08:22:45;;;;;;;1.30;1.00;;;16.80;99.90;;;;;;5095983;28;20476;-84
2022/10/29 08:25:14;;;;;;;3.33;1.00;;;17.10;99.90;;;;;;5095627;28;20510;-84
2022/10/29 08:27:41;;;;;;;2.60;0.90;;;17.40;99.90;;;;;;5095104;28;20461;-84
2022/10/29 08:30:13;;;;;;;1.00;1.00;;;17.60;99.90;;;;;;5095915;28;20981;-85
2022/10/29 08:32:46;;;;;;;1.40;0.93;;;17.80;99.90;;;;;;5095784;28;20495;-84
2022/10/29 08:35:14;;;;;;;0.87;0.87;;;18.20;99.90;;;;;;5095514;28;20429;-84
2022/10/29 08:37:42;;;;;;;1.00;0.70;;;18.50;99.90;;;;;;5095805;28;20475;-83
2022/10/29 08:40:16;;;;;;;2.70;1.40;;;19.00;99.90;;;;;;5095717;28;20453;-83
2022/10/29 08:42:53;;;;;;;2.27;1.30;;;19.70;99.90;;;;;;5095729;28;20471;-84
2022/10/29 08:45:25;;;;;;;2.70;1.20;;;20.50;99.90;;;;;;5095393;28;20862;-83
2022/10/29 08:48:11;;;;;;;1.40;1.13;;;21.40;99.90;;;;;;5095566;28;20433;-83
2022/10/29 08:50:44;;;;;;;1.07;0.50;;;22.30;99.90;;;;;;5095191;28;20456;-84
2022/10/29 08:53:17;;;;;;;7.30;0.80;;;23.10;99.90;;;;;;5095137;28;20472;-84
2022/10/29 08:55:46;;;;;;;1.50;0.60;;;24.00;99.90;;;;;;5095422;28;20438;-83
2022/10/29 08:58:24;;;;;;;1.47;1.10;;;24.60;99.90;;;;;;5095333;28;20448;-83
2022/10/29 09:00:55;;;;;;;1.38;0.70;;;25.80;99.90;;;;;;5095003;28;20592;-83
2022/10/29 09:03:24;;;;;;;1.30;1.10;;;26.90;99.90;;;;;;5094979;28;20656;-83
2022/10/29 09:06:04;;;;;;;1.75;0.88;;;28.00;99.90;;;;;;5095195;28;20201;-83
2022/10/29 09:08:40;;;;;;;4.93;1.10;;;29.00;97.80;;;;;;5094833;28;20560;-84
2022/10/29 09:11:21;;;;;;;2.60;0.80;;;30.10;94.00;;;;;;5095230;28;20236;-84
2022/10/29 09:14:02;;;;;;;1.02;0.90;;;30.70;87.10;;;;;;5095884;28;20206;-84
2022/10/29 09:16:42;;;;;;;2.00;1.00;;;30.50;84.20;;;;;;5094739;28;20239;-84
2022/10/29 09:19:23;;;;;;;1.50;1.40;;;30.90;83.60;;;;;;5094988;28;20190;-84
2022/10/29 09:21:58;;;;;;;3.10;0.70;;;31.00;78.00;;;;;;5094889;28;20229;-84
2022/10/29 09:24:33;;;;;;;4.85;1.70;;;31.10;78.00;;;;;;5094545;28;20551;-84
2022/10/29 09:27:03;;;;;;;0.80;0.80;;;31.20;77.40;;;;;;5094803;28;20185;-84
2022/10/29 09:29:51;;;;;;;0.90;0.90;;;31.20;74.50;;;;;;5094707;28;20213;-84
2022/10/29 09:32:23;;;;;;;1.10;0.73;;;31.20;76.90;;;;;;5094368;28;20225;-84
2022/10/29 09:34:53;;;;;;;0.80;0.80;;;31.00;79.30;;;;;;5094369;28;20524;-84
2022/10/29 09:37:27;;;;;;;1.08;0.93;;;30.70;78.90;;;;;;5094024;28;20217;-84
2022/10/29 09:39:55;;;;;;;2.72;0.90;;;30.30;75.70;;;;;;5095125;28;20197;-84
2022/10/29 09:42:31;;;;;;;1.13;0.85;;;30.10;77.20;;;;;;5094327;28;20226;-84
2022/10/29 09:45:01;;;;;;;3.33;0.90;;;30.00;78.00;;;;;;5094284;28;20655;-84
2022/10/29 09:47:42;;;;;;;2.00;0.70;;;30.20;77.50;;;;;;5094548;28;20585;-84
2022/10/29 09:50:18;;;;;;;1.80;0.80;;;30.60;77.30;;;;;;5094375;28;20193;-84
2022/10/29 09:52:48;;;;;;;1.77;0.60;;;31.20;74.50;;;;;;5093984;28;20221;-84
2022/10/29 09:55:20;;;;;;;2.35;0.98;;;31.70;72.80;;;;;;5094425;28;20208;-85
2022/10/29 09:57:48;;;;;;;0.70;0.70;;;32.30;68.90;;;;;;5094320;28;20186;-85
2022/10/29 10:00:19;;;;;;;2.05;0.85;;;32.60;65.30;;;;;;5094428;28;20204;-84
2022/10/29 10:02:53;;;;;;;0.82;0.68;;;32.20;65.80;;;;;;5094175;28;20214;-84
2022/10/29 10:05:25;;;;;;;1.95;0.75;;;31.60;68.20;;;;;;5094142;28;20697;-84
2022/10/29 10:08:06;;;;;;;3.42;0.90;;;30.90;70.60;;;;;;5094231;28;20194;-84
2022/10/29 10:10:34;;;;;;;2.15;0.80;;;30.00;73.30;;;;;;5094020;28;20190;-85
2022/10/29 10:13:03;;;;;;;3.40;0.90;;;29.10;73.30;;;;;;5093928;28;20232;-85
2022/10/29 10:15:32;;;;;;;2.55;1.10;;;28.30;74.90;;;;;;5093711;28;20210;-85
2022/10/29 10:18:01;;;;;;;1.02;0.85;;;27.80;74.70;;;;;;5093503;28;20629;-85
2022/10/29 10:20:35;;;;;;;1.17;0.90;;;27.40;75.30;;;;;;5093685;28;20190;-85
2022/10/29 10:23:24;;;;;;;2.05;0.70;;;26.90;76.20;;;;;;5093883;28;20190;-85
2022/10/29 10:25:52;;;;;;;1.73;0.80;;;26.70;76.40;;;;;;5093603;28;20269;-84
2022/10/29 10:28:21;;;;;;;3.42;0.75;;;26.30;78.40;;;;;;5093479;28;20255;-85
2022/10/29 10:31:07;;;;;;;1.55;0.98;;;26.00;78.00;;;;;;5093684;28;20208;-84
2022/10/29 10:33:36;;;;;;;1.10;1.00;;;25.70;78.10;;;;;;5093739;28;20205;-84
2022/10/29 10:36:05;;;;;;;2.97;0.80;;;25.60;79.20;;;;;;5094897;28;20202;-84
2022/10/29 10:38:41;;;;;;;0.90;0.90;;;25.60;79.60;;;;;;5093649;28;20206;-84
2022/10/29 10:41:10;;;;;;;1.17;0.60;;;25.40;79.40;;;;;;5093566;28;20235;-85
2022/10/29 10:43:38;;;;;;;3.00;0.80;;;25.30;78.60;;;;;;5093380;28;20206;-85
2022/10/29 10:46:11;;;;;;;1.25;0.90;;;25.00;79.10;;;;;;5093583;28;20198;-85
2022/10/29 10:48:38;;;;;;;1.15;0.90;;;24.90;80.70;;;;;;5092976;28;20541;-85
2022/10/29 10:51:12;;;;;;;1.02;0.80;;;24.80;81.10;;;;;;5092827;28;20226;-84
2022/10/29 10:53:41;;;;;;;1.95;0.80;;;24.70;83.50;;;;;;5093432;28;20232;-83
2022/10/29 10:56:17;;;;;;;1.40;0.70;;;24.60;82.30;;;;;;5093412;28;20205;-84
2022/10/29 10:58:50;;;;;;;3.40;0.82;;;24.60;83.20;;;;;;5093538;28;20585;-85
2022/10/29 11:01:22;;;;;;;1.65;0.80;;;24.70;87.90;;;;;;5093549;28;20226;-85
2022/10/29 11:03:55;;;;;;;1.73;1.10;;;24.70;86.60;;;;;;5094131;28;20198;-85
2022/10/29 11:06:25;;;;;;;0.85;0.70;;;24.70;87.80;;;;;;5093508;28;20202;-85
2022/10/29 11:09:00;;;;;;;1.75;0.75;;;24.70;89.80;;;;;;5093432;28;20187;-85
2022/10/29 11:11:30;;;;;;;3.90;0.90;;;24.70;87.30;;;;;;5093345;28;20225;-86
2022/10/29 11:14:04;;;;;;;0.95;0.90;;;24.60;87.40;;;;;;5093304;28;20213;-86
2022/10/29 11:16:38;;;;;;;0.63;0.63;;;24.60;87.80;;;;;;5093396;28;20225;-86
2022/10/29 11:19:13;;;;;;;1.48;0.82;;;24.50;86.80;;;;;;5093439;28;20186;-86
2022/10/29 11:21:46;;;;;;;1.58;0.93;;;24.50;85.60;;;;;;5093300;28;20222;-86
2022/10/29 11:24:20;;;;;;;1.98;0.70;;;24.50;87.40;;;;;;5093420;28;20560;-87
2022/10/29 11:26:51;;;;;;;2.90;0.80;;;24.40;87.20;;;;;;5093374;28;20209;-86
2022/10/29 11:29:24;;;;;;;3.50;0.90;;;24.40;88.10;;;;;;5093045;28;20186;-87
2022/10/29 11:31:59;;;;;;;1.25;0.70;;;24.50;88.00;;;;;;5092773;28;20232;-86
2022/10/29 11:34:34;;;;;;;0.98;0.77;;;24.50;88.90;;;;;;5093219;28;20227;-87
2022/10/29 11:37:07;;;;;;;1.10;1.00;;;24.40;89.00;;;;;;5093125;28;20190;-86
2022/10/29 11:39:43;;;;;;;0.95;0.60;;;24.30;88.60;;;;;;5092774;28;20218;-85
2022/10/29 11:42:12;;;;;;;0.98;0.88;;;24.20;90.10;;;;;;5093052;28;20221;-86
2022/10/29 11:44:40;;;;;;;2.35;0.70;;;24.20;90.30;;;;;;5093033;28;20213;-86
2022/10/29 11:47:26;;;;;;;0.90;0.90;;;24.10;89.80;;;;;;5093373;28;20190;-86
2022/10/29 11:50:09;;;;;;;3.70;0.98;;;24.10;89.10;;;;;;5093718;28;20187;-85
2022/10/29 11:52:44;;;;;;;2.00;1.02;;;24.00;90.50;;;;;;5092851;28;20225;-85
2022/10/29 11:55:32;;;;;;;2.03;1.13;;;23.90;91.50;;;;;;5093006;28;20629;-85
2022/10/29 11:58:03;;;;;;;1.08;1.00;;;23.80;91.90;;;;;;5092921;28;20193;-86
2022/10/29 12:00:38;;;;;;;8.38;0.80;;;23.70;91.40;;;;;;5093988;28;20225;-85
2022/10/29 12:03:23;;;;;;;0.60;0.60;;;23.60;92.00;;;;;;5096658;28;20189;-85
2022/10/29 12:05:58;;;;;;;2.00;1.10;;;23.50;92.10;;;;;;5096415;28;20193;-85
2022/10/29 12:08:43;;;;;;;1.50;0.80;;;23.40;92.40;;;;;;5096106;28;20747;-86
2022/10/29 12:11:22;;;;;;;3.92;0.75;;;23.30;92.50;;;;;;5095968;28;20221;-85
2022/10/29 12:13:58;;;;;;;1.10;1.00;;;23.30;91.50;;;;;;5096225;28;20583;-86
2022/10/29 12:16:35;;;;;;;0.73;0.73;;;23.30;92.30;;;;;;5095947;28;20727;-85
2022/10/29 12:19:10;;;;;;;3.90;0.57;;;23.20;92.80;;;;;;5096244;28;20190;-86
2022/10/29 12:21:44;;;;;;;0.82;0.82;;;23.20;92.80;;;;;;5096159;28;20295;-86
2022/10/29 12:24:25;;;;;;;4.60;1.03;;;23.10;93.10;;;;;;5096169;28;20204;-86
2022/10/29 12:27:03;;;;;;;6.53;0.83;;;23.10;94.20;;;;;;5095777;28;20178;-85
2022/10/29 12:29:36;;;;;;;2.20;0.70;;;23.00;94.70;;;;;;5095723;28;20663;-85
2022/10/29 12:32:08;;;;;;;6.40;1.03;;;22.90;95.10;;;;;;5095584;28;20222;-84
2022/10/29 12:34:43;;;;;;;0.80;0.80;;;22.90;95.40;;;;;;5095846;28;20217;-85
2022/10/29 12:37:14;;;;;;;5.67;1.17;;;22.80;95.80;;;;;;5095851;28;20182;-85
2022/10/29 12:39:47;;;;;;;0.80;0.80;;;22.80;93.80;;;;;;5095510;28;20637;-84
2022/10/29 12:42:21;;;;;;;1.13;0.83;;;22.80;95.20;;;;;;5095792;28;20222;-85
2022/10/29 12:44:56;;;;;;;2.60;0.73;;;22.70;95.90;;;;;;5095788;28;20185;-84
2022/10/29 12:47:28;;;;;;;0.60;0.50;;;22.70;95.80;;;;;;5095733;28;20190;-85
2022/10/29 12:50:05;;;;;;;1.30;0.47;;;22.60;95.70;;;;;;5095649;28;20560;-84
2022/10/29 12:52:40;;;;;;;1.63;0.80;;;22.60;94.60;;;;;;5095300;28;20700;-84
2022/10/29 12:55:10;;;;;;;0.90;0.73;;;22.60;92.70;;;;;;5095143;28;20700;-84
2022/10/29 12:57:38;;;;;;;1.90;0.80;;;22.70;92.40;;;;;;5095455;28;20444;-85
2022/10/29 13:00:46;;;;;;;2.60;1.00;;;22.70;92.80;;;;;;5095397;28;20198;-84
2022/10/29 13:03:33;;;;;;;0.60;0.60;;;22.80;91.50;;;;;;5095318;28;20501;-84
2022/10/29 13:06:34;;;;;;;1.27;0.70;;;22.90;91.50;;;;;;5094875;28;20456;-85